メインページ
METAR-TAF:

METAR-TAF

空港 :

サンフランシスコ, カリフォルニア州, アメリカ合衆国

サンフランシスコ国際空港

緯度: 37-37-11N, 経度: 122-21-53W, 海抜: 3m

現時点の気象観測

当レポートは1時間12分前の10:56(UTC)に作成
東/南東の風 4kt
気温 13°C
湿度 67%
気圧 1022 hPa
視程: 16.1km
高度2300ftの雲はほとんどない
高度7000ftの曇り
小雨

METAR: KSFO 241056Z 12004KT 10SM -RA FEW023 OVC070 13/07 A3019 RMK AO2 RAB53 SLP224 P0000 T01280067

時間: 05:08 (12:08 UTC)

予報

当レポートは39分前の11:29(UTC)に作成
予報は24日の 12時(UTC)から 25日の 18時(UTC)まで有効
南東の風 11kt
視程: 10km
高度3000ftの雲は散在している
高度5000ftの曇り
弱いにわか雨
24日の 1500時(UTC)から
南/南東の風 19kt、最大25ktの突風を伴う
視程: 10km
高度2500ftの千切れ雲あり
高度4000ftの曇り
小雨
24日の 1800時(UTC)から
の風 20kt、最大28ktの突風を伴う
視程: 10km
高度2500ftの曇り
小雨
24日の 18時(UTC)から 24日の 22時(UTC)まで一時的に
視程: 6.4km
25日の 0100時(UTC)から
南西の風 7kt
視程: 10km
高度3000ftの雲は散在している
高度5000ftの千切れ雲あり
近辺でにわか雨
25日の 0500時(UTC)から
西/南西の風 5kt
視程: 10km
高度5000ftの雲は散在している
高度8000ftの雲は散在している
25日の 1000時(UTC)から
西の風 5kt
視程: 10km
高度3000ftの雲はほとんどない
25日の 1500時(UTC)から
西の風 7kt
視程: 10km
高度2000ftの雲は散在している
高度20000ftの雲は散在している

TAF: KSFO 241129Z 2412/2518 14011KT P6SM -SHRA SCT030 OVC050 FM241500 16019G25KT P6SM -RA BKN025 OVC040 FM241800 18020G28KT P6SM -RA OVC025 TEMPO 2418/2422 4SM RA FM250100 22007KT P6SM VCSH SCT030 BKN050 FM250500 25005KT P6SM SCT050 SCT080 FM251000 27005KT P6SM FEW030 FM251500 28007KT P6SM SCT020 SCT200

4,000以上の空港の気象観測と天気予報(METAR報とTAF報)

利用可能な観測所は地図上に黄色い丸と赤い丸で示す。

丸の上にカーソルを重ねると観測所名を参照できる。

次にクリックすると気象観測と天気予報を参照できる。

マップの切り替え:黒色「×」印の緑ボタンをクリックして拡大、「-」印の緑ボタンをクリックして縮小、緑色の三角印をクリックして隣りの地図に切り替え


METAR-TAF: